KIAB/IAB METAR and TAF weather

Enter ICAO airport designator
Station Type Date Time Source
KIAB METAR 2019/08/20 08:56 UTC NOAA

KIAB 200856Z AUTO 15010KT 10SM CLR 27/20 A2998 RMK AO2 SLP137 T02700198 $


Station Type Date Time Source
KIAB Decoded METAR 2019/08/20 08:56 UTC NOAA

McConnell Air Force Base, KS, United States (KIAB) 37-37N 097-16W
Aug 20, 2019 - 04:56 AM EDT / 2019.08.20 0856 UTC
Wind: from the SSE (150 degrees) at 12 MPH (10 KT):0
Visibility: 10 mile(s):0
Sky conditions: clear
Temperature: 80.6 F (27.0 C)
Dew Point: 67.6 F (19.8 C)
Relative Humidity: 64%
Pressure (altimeter): 29.98 in. Hg (1015 hPa)
ob: KIAB 200856Z AUTO 15010KT 10SM CLR 27/20 A2998 RMK AO2 SLP137 T02700198
cycle: 9

Station Type Date Time Source
KIAB TAF 2019/08/20 02:59 UTC NOAA

TAF KIAB 200200Z 2002/2108 11009KT 9999 FEW150 QNH2991INS
BECMG 2014/2015 16012G18KT 9999 SCT160 QNH2992INS
BECMG 2102/2103 15009KT 9999 SKC QNH2993INS TX37/2021Z TN25/2011Z

Example: see airport list